sensor_id;sensor_type;location;lat;lon;timestamp;temperature;humidity
22081;DHT22;11207;59.512;18.050;2022-11-20T00:00:43;0.90;99.90
22081;DHT22;11207;59.512;18.050;2022-11-20T00:03:08;0.90;99.90
22081;DHT22;11207;59.512;18.050;2022-11-20T00:05:34;0.90;99.90
22081;DHT22;11207;59.512;18.050;2022-11-20T00:07:59;0.90;99.90
22081;DHT22;11207;59.512;18.050;2022-11-20T00:10:25;0.90;99.90
22081;DHT22;11207;59.512;18.050;2022-11-20T00:12:50;0.90;99.90
22081;DHT22;11207;59.512;18.050;2022-11-20T00:15:16;0.90;99.90
22081;DHT22;11207;59.512;18.050;2022-11-20T00:17:42;0.90;99.90
22081;DHT22;11207;59.512;18.050;2022-11-20T00:20:08;0.80;99.90
22081;DHT22;11207;59.512;18.050;2022-11-20T00:22:34;0.90;99.90
22081;DHT22;11207;59.512;18.050;2022-11-20T00:24:59;0.80;99.90
22081;DHT22;11207;59.512;18.050;2022-11-20T00:27:25;0.90;99.90
22081;DHT22;11207;59.512;18.050;2022-11-20T00:29:50;0.80;99.90
22081;DHT22;11207;59.512;18.050;2022-11-20T00:32:16;0.90;99.90
22081;DHT22;11207;59.512;18.050;2022-11-20T00:34:42;0.90;99.90
22081;DHT22;11207;59.512;18.050;2022-11-20T00:37:07;0.90;99.90
22081;DHT22;11207;59.512;18.050;2022-11-20T00:39:33;0.90;99.90
22081;DHT22;11207;59.512;18.050;2022-11-20T00:41:58;0.90;99.90
22081;DHT22;11207;59.512;18.050;2022-11-20T00:44:24;0.90;99.90
22081;DHT22;11207;59.512;18.050;2022-11-20T00:46:50;0.90;99.90
22081;DHT22;11207;59.512;18.050;2022-11-20T00:49:15;0.80;99.90
22081;DHT22;11207;59.512;18.050;2022-11-20T00:51:41;0.80;99.90
22081;DHT22;11207;59.512;18.050;2022-11-20T00:54:06;0.90;99.90
22081;DHT22;11207;59.512;18.050;2022-11-20T00:56:32;0.90;99.90
22081;DHT22;11207;59.512;18.050;2022-11-20T00:59:00;0.80;99.90
22081;DHT22;11207;59.512;18.050;2022-11-20T01:01:26;0.80;99.90
22081;DHT22;11207;59.512;18.050;2022-11-20T01:03:56;0.90;99.90
22081;DHT22;11207;59.512;18.050;2022-11-20T01:06:27;0.70;99.90
22081;DHT22;11207;59.512;18.050;2022-11-20T01:08:55;0.80;99.90
22081;DHT22;11207;59.512;18.050;2022-11-20T01:11:27;0.90;99.90
22081;DHT22;11207;59.512;18.050;2022-11-20T01:13:54;0.90;99.90
22081;DHT22;11207;59.512;18.050;2022-11-20T01:16:25;0.70;99.90
22081;DHT22;11207;59.512;18.050;2022-11-20T01:18:53;0.80;99.90
22081;DHT22;11207;59.512;18.050;2022-11-20T01:21:42;0.80;99.90
22081;DHT22;11207;59.512;18.050;2022-11-20T01:24:09;0.80;99.90
22081;DHT22;11207;59.512;18.050;2022-11-20T01:26:37;0.80;99.90
22081;DHT22;11207;59.512;18.050;2022-11-20T01:29:05;0.80;99.90
22081;DHT22;11207;59.512;18.050;2022-11-20T01:31:33;0.80;99.90
22081;DHT22;11207;59.512;18.050;2022-11-20T01:34:02;0.80;99.90
22081;DHT22;11207;59.512;18.050;2022-11-20T01:36:29;0.80;99.90
22081;DHT22;11207;59.512;18.050;2022-11-20T01:38:57;0.90;99.90
22081;DHT22;11207;59.512;18.050;2022-11-20T01:41:24;0.80;99.90
22081;DHT22;11207;59.512;18.050;2022-11-20T01:44:11;0.80;99.90
22081;DHT22;11207;59.512;18.050;2022-11-20T01:46:38;0.80;99.90
22081;DHT22;11207;59.512;18.050;2022-11-20T01:49:21;0.80;99.90
22081;DHT22;11207;59.512;18.050;2022-11-20T01:51:52;0.80;99.90
22081;DHT22;11207;59.512;18.050;2022-11-20T01:54:38;0.70;99.90
22081;DHT22;11207;59.512;18.050;2022-11-20T01:57:07;0.70;99.90
22081;DHT22;11207;59.512;18.050;2022-11-20T01:59:35;0.70;99.90
22081;DHT22;11207;59.512;18.050;2022-11-20T02:02:04;0.70;99.90
22081;DHT22;11207;59.512;18.050;2022-11-20T02:04:30;0.60;99.90
22081;DHT22;11207;59.512;18.050;2022-11-20T02:07:00;0.70;99.90
22081;DHT22;11207;59.512;18.050;2022-11-20T02:09:27;0.70;99.90
22081;DHT22;11207;59.512;18.050;2022-11-20T02:11:53;0.70;99.90
22081;DHT22;11207;59.512;18.050;2022-11-20T02:14:19;0.70;99.90
22081;DHT22;11207;59.512;18.050;2022-11-20T02:16:47;0.80;99.90
22081;DHT22;11207;59.512;18.050;2022-11-20T02:19:31;0.80;99.90
22081;DHT22;11207;59.512;18.050;2022-11-20T02:22:19;0.70;99.90
22081;DHT22;11207;59.512;18.050;2022-11-20T02:24:48;0.70;99.90
22081;DHT22;11207;59.512;18.050;2022-11-20T02:27:15;0.90;99.90
22081;DHT22;11207;59.512;18.050;2022-11-20T02:29:57;0.70;99.90
22081;DHT22;11207;59.512;18.050;2022-11-20T02:32:24;0.70;99.90
22081;DHT22;11207;59.512;18.050;2022-11-20T02:34:51;0.70;99.90
22081;DHT22;11207;59.512;18.050;2022-11-20T02:37:17;0.70;99.90
22081;DHT22;11207;59.512;18.050;2022-11-20T02:39:45;0.70;99.90
22081;DHT22;11207;59.512;18.050;2022-11-20T02:42:11;0.70;99.90
22081;DHT22;11207;59.512;18.050;2022-11-20T02:44:37;0.70;99.90
22081;DHT22;11207;59.512;18.050;2022-11-20T02:47:02;0.60;99.90
22081;DHT22;11207;59.512;18.050;2022-11-20T02:49:28;0.70;99.90
22081;DHT22;11207;59.512;18.050;2022-11-20T02:51:54;0.60;99.90
22081;DHT22;11207;59.512;18.050;2022-11-20T02:54:19;0.70;99.90
22081;DHT22;11207;59.512;18.050;2022-11-20T02:56:45;0.70;99.90
22081;DHT22;11207;59.512;18.050;2022-11-20T02:59:10;0.70;99.90
22081;DHT22;11207;59.512;18.050;2022-11-20T03:01:36;0.70;99.90
22081;DHT22;11207;59.512;18.050;2022-11-20T03:04:02;0.60;99.90
22081;DHT22;11207;59.512;18.050;2022-11-20T03:06:28;0.70;99.90
22081;DHT22;11207;59.512;18.050;2022-11-20T03:08:53;0.70;99.90
22081;DHT22;11207;59.512;18.050;2022-11-20T03:11:19;0.70;99.90
22081;DHT22;11207;59.512;18.050;2022-11-20T03:13:45;0.70;99.90
22081;DHT22;11207;59.512;18.050;2022-11-20T03:16:16;0.70;99.90
22081;DHT22;11207;59.512;18.050;2022-11-20T03:18:42;0.70;99.90
22081;DHT22;11207;59.512;18.050;2022-11-20T03:21:10;0.70;99.90
22081;DHT22;11207;59.512;18.050;2022-11-20T03:23:37;0.60;99.90
22081;DHT22;11207;59.512;18.050;2022-11-20T03:28:36;0.70;99.90
22081;DHT22;11207;59.512;18.050;2022-11-20T03:31:10;0.60;99.90
22081;DHT22;11207;59.512;18.050;2022-11-20T03:33:36;0.60;99.90
22081;DHT22;11207;59.512;18.050;2022-11-20T03:36:04;0.60;99.90
22081;DHT22;11207;59.512;18.050;2022-11-20T03:38:30;0.60;99.90
22081;DHT22;11207;59.512;18.050;2022-11-20T03:41:01;0.60;99.90
22081;DHT22;11207;59.512;18.050;2022-11-20T03:43:28;0.50;99.90
22081;DHT22;11207;59.512;18.050;2022-11-20T03:45:53;0.50;99.90
22081;DHT22;11207;59.512;18.050;2022-11-20T03:48:19;0.50;99.90
22081;DHT22;11207;59.512;18.050;2022-11-20T03:50:44;0.40;99.90
22081;DHT22;11207;59.512;18.050;2022-11-20T03:53:15;0.50;99.90
22081;DHT22;11207;59.512;18.050;2022-11-20T03:55:41;0.40;99.90
22081;DHT22;11207;59.512;18.050;2022-11-20T03:58:07;0.30;99.90
22081;DHT22;11207;59.512;18.050;2022-11-20T04:00:33;0.30;99.90
22081;DHT22;11207;59.512;18.050;2022-11-20T04:03:00;0.30;99.90
22081;DHT22;11207;59.512;18.050;2022-11-20T04:05:25;0.30;99.90
22081;DHT22;11207;59.512;18.050;2022-11-20T04:07:51;0.30;99.90
22081;DHT22;11207;59.512;18.050;2022-11-20T04:10:16;0.30;99.90
22081;DHT22;11207;59.512;18.050;2022-11-20T04:12:42;0.40;99.90
22081;DHT22;11207;59.512;18.050;2022-11-20T04:15:08;0.40;99.90
22081;DHT22;11207;59.512;18.050;2022-11-20T04:17:34;0.40;99.90
22081;DHT22;11207;59.512;18.050;2022-11-20T04:19:59;0.40;99.90
22081;DHT22;11207;59.512;18.050;2022-11-20T04:22:25;0.30;99.90
22081;DHT22;11207;59.512;18.050;2022-11-20T04:24:51;0.40;99.90
22081;DHT22;11207;59.512;18.050;2022-11-20T04:27:16;0.40;99.90
22081;DHT22;11207;59.512;18.050;2022-11-20T04:29:42;0.30;99.90
22081;DHT22;11207;59.512;18.050;2022-11-20T04:32:08;0.40;99.90
22081;DHT22;11207;59.512;18.050;2022-11-20T04:34:33;0.30;99.90
22081;DHT22;11207;59.512;18.050;2022-11-20T04:36:59;0.30;99.90
22081;DHT22;11207;59.512;18.050;2022-11-20T04:39:25;0.30;99.90
22081;DHT22;11207;59.512;18.050;2022-11-20T04:41:50;0.30;99.90
22081;DHT22;11207;59.512;18.050;2022-11-20T04:44:39;0.30;99.90
22081;DHT22;11207;59.512;18.050;2022-11-20T04:47:05;0.30;99.90
22081;DHT22;11207;59.512;18.050;2022-11-20T04:49:31;0.30;99.90
22081;DHT22;11207;59.512;18.050;2022-11-20T04:51:57;0.40;99.90
22081;DHT22;11207;59.512;18.050;2022-11-20T04:54:23;0.40;99.90
22081;DHT22;11207;59.512;18.050;2022-11-20T04:56:49;0.40;99.90
22081;DHT22;11207;59.512;18.050;2022-11-20T04:59:16;0.40;99.90
22081;DHT22;11207;59.512;18.050;2022-11-20T05:01:41;0.40;99.90
22081;DHT22;11207;59.512;18.050;2022-11-20T05:04:07;0.30;99.90
22081;DHT22;11207;59.512;18.050;2022-11-20T05:06:33;0.40;99.90
22081;DHT22;11207;59.512;18.050;2022-11-20T05:08:58;0.30;99.90
22081;DHT22;11207;59.512;18.050;2022-11-20T05:11:24;0.30;99.90
22081;DHT22;11207;59.512;18.050;2022-11-20T05:13:51;0.30;99.90
22081;DHT22;11207;59.512;18.050;2022-11-20T05:16:19;0.30;99.90
22081;DHT22;11207;59.512;18.050;2022-11-20T05:18:46;0.30;99.90
22081;DHT22;11207;59.512;18.050;2022-11-20T05:21:12;0.30;99.90
22081;DHT22;11207;59.512;18.050;2022-11-20T05:23:39;0.30;99.90
22081;DHT22;11207;59.512;18.050;2022-11-20T05:26:07;0.40;99.90
22081;DHT22;11207;59.512;18.050;2022-11-20T05:28:33;0.30;99.90
22081;DHT22;11207;59.512;18.050;2022-11-20T05:31:07;0.30;99.90
22081;DHT22;11207;59.512;18.050;2022-11-20T05:33:34;0.30;99.90
22081;DHT22;11207;59.512;18.050;2022-11-20T05:36:02;0.40;99.90
22081;DHT22;11207;59.512;18.050;2022-11-20T05:38:28;0.30;99.90
22081;DHT22;11207;59.512;18.050;2022-11-20T05:40:54;0.30;99.90
22081;DHT22;11207;59.512;18.050;2022-11-20T05:43:19;0.40;99.90
22081;DHT22;11207;59.512;18.050;2022-11-20T05:45:55;0.40;99.90
22081;DHT22;11207;59.512;18.050;2022-11-20T05:48:20;0.30;99.90
22081;DHT22;11207;59.512;18.050;2022-11-20T05:50:47;0.30;99.90
22081;DHT22;11207;59.512;18.050;2022-11-20T05:53:13;0.30;99.90
22081;DHT22;11207;59.512;18.050;2022-11-20T05:55:39;0.30;99.90
22081;DHT22;11207;59.512;18.050;2022-11-20T05:58:04;0.30;99.90
22081;DHT22;11207;59.512;18.050;2022-11-20T06:00:30;0.30;99.90
22081;DHT22;11207;59.512;18.050;2022-11-20T06:02:55;0.30;99.90
22081;DHT22;11207;59.512;18.050;2022-11-20T06:05:21;0.30;99.90
22081;DHT22;11207;59.512;18.050;2022-11-20T06:07:47;0.40;99.90
22081;DHT22;11207;59.512;18.050;2022-11-20T06:10:13;0.40;99.90
22081;DHT22;11207;59.512;18.050;2022-11-20T06:12:38;0.40;99.90
22081;DHT22;11207;59.512;18.050;2022-11-20T06:15:05;0.40;99.90
22081;DHT22;11207;59.512;18.050;2022-11-20T06:17:31;0.40;99.90
22081;DHT22;11207;59.512;18.050;2022-11-20T06:19:56;0.40;99.90
22081;DHT22;11207;59.512;18.050;2022-11-20T06:22:22;0.30;99.90
22081;DHT22;11207;59.512;18.050;2022-11-20T06:24:48;0.40;99.90
22081;DHT22;11207;59.512;18.050;2022-11-20T06:27:13;0.30;99.90
22081;DHT22;11207;59.512;18.050;2022-11-20T06:29:39;0.30;99.90
22081;DHT22;11207;59.512;18.050;2022-11-20T06:32:04;0.30;99.90
22081;DHT22;11207;59.512;18.050;2022-11-20T06:34:30;0.30;99.90
22081;DHT22;11207;59.512;18.050;2022-11-20T06:36:56;0.20;99.90
22081;DHT22;11207;59.512;18.050;2022-11-20T06:39:21;0.30;99.90
22081;DHT22;11207;59.512;18.050;2022-11-20T06:41:47;0.30;99.90
22081;DHT22;11207;59.512;18.050;2022-11-20T06:44:13;0.30;99.90
22081;DHT22;11207;59.512;18.050;2022-11-20T06:46:38;0.30;99.90
22081;DHT22;11207;59.512;18.050;2022-11-20T06:49:04;0.20;99.90
22081;DHT22;11207;59.512;18.050;2022-11-20T06:51:29;0.20;99.90
22081;DHT22;11207;59.512;18.050;2022-11-20T06:53:55;0.20;99.90
22081;DHT22;11207;59.512;18.050;2022-11-20T06:56:21;0.20;99.90
22081;DHT22;11207;59.512;18.050;2022-11-20T06:58:46;0.20;99.90
22081;DHT22;11207;59.512;18.050;2022-11-20T07:01:13;0.20;99.90
22081;DHT22;11207;59.512;18.050;2022-11-20T07:03:40;0.20;99.90
22081;DHT22;11207;59.512;18.050;2022-11-20T07:06:06;0.20;99.90
22081;DHT22;11207;59.512;18.050;2022-11-20T07:08:33;0.20;99.90
22081;DHT22;11207;59.512;18.050;2022-11-20T07:11:04;0.20;99.90
22081;DHT22;11207;59.512;18.050;2022-11-20T07:13:30;0.20;99.90
22081;DHT22;11207;59.512;18.050;2022-11-20T07:16:05;0.20;99.90
22081;DHT22;11207;59.512;18.050;2022-11-20T07:18:31;0.30;99.90
22081;DHT22;11207;59.512;18.050;2022-11-20T07:21:01;0.30;99.90
22081;DHT22;11207;59.512;18.050;2022-11-20T07:23:26;0.30;99.90
22081;DHT22;11207;59.512;18.050;2022-11-20T07:25:52;0.30;99.90
22081;DHT22;11207;59.512;18.050;2022-11-20T07:28:18;0.40;99.90
22081;DHT22;11207;59.512;18.050;2022-11-20T07:30:50;0.30;99.90
22081;DHT22;11207;59.512;18.050;2022-11-20T07:33:15;0.30;99.90
22081;DHT22;11207;59.512;18.050;2022-11-20T07:35:41;0.40;99.90
22081;DHT22;11207;59.512;18.050;2022-11-20T07:38:07;0.30;99.90
22081;DHT22;11207;59.512;18.050;2022-11-20T07:40:33;0.40;99.90
22081;DHT22;11207;59.512;18.050;2022-11-20T07:42:59;0.40;99.90
22081;DHT22;11207;59.512;18.050;2022-11-20T07:45:24;0.30;99.90
22081;DHT22;11207;59.512;18.050;2022-11-20T07:47:51;0.40;99.90
22081;DHT22;11207;59.512;18.050;2022-11-20T07:50:17;0.40;99.90
22081;DHT22;11207;59.512;18.050;2022-11-20T07:52:43;0.40;99.90
22081;DHT22;11207;59.512;18.050;2022-11-20T07:55:10;0.40;99.90
22081;DHT22;11207;59.512;18.050;2022-11-20T07:57:36;0.50;99.90
22081;DHT22;11207;59.512;18.050;2022-11-20T08:00:02;0.40;99.90
22081;DHT22;11207;59.512;18.050;2022-11-20T08:02:28;0.50;99.90
22081;DHT22;11207;59.512;18.050;2022-11-20T08:04:53;0.60;99.90
22081;DHT22;11207;59.512;18.050;2022-11-20T08:07:19;0.60;99.90
22081;DHT22;11207;59.512;18.050;2022-11-20T08:09:45;0.60;99.90
22081;DHT22;11207;59.512;18.050;2022-11-20T08:12:18;0.60;99.90
22081;DHT22;11207;59.512;18.050;2022-11-20T08:15:04;0.70;99.90
22081;DHT22;11207;59.512;18.050;2022-11-20T08:17:30;0.70;99.90
22081;DHT22;11207;59.512;18.050;2022-11-20T08:19:55;0.70;99.90
22081;DHT22;11207;59.512;18.050;2022-11-20T08:22:21;0.70;99.90
22081;DHT22;11207;59.512;18.050;2022-11-20T08:24:47;0.70;99.90
22081;DHT22;11207;59.512;18.050;2022-11-20T08:27:13;0.70;99.90
22081;DHT22;11207;59.512;18.050;2022-11-20T08:29:39;0.80;99.90
22081;DHT22;11207;59.512;18.050;2022-11-20T08:32:04;0.80;99.90
22081;DHT22;11207;59.512;18.050;2022-11-20T08:34:30;0.80;99.90
22081;DHT22;11207;59.512;18.050;2022-11-20T08:36:56;0.90;99.90
22081;DHT22;11207;59.512;18.050;2022-11-20T08:39:21;0.90;99.90
22081;DHT22;11207;59.512;18.050;2022-11-20T08:41:53;1.00;99.90
22081;DHT22;11207;59.512;18.050;2022-11-20T08:44:18;1.00;99.90
22081;DHT22;11207;59.512;18.050;2022-11-20T08:46:44;1.10;99.90
22081;DHT22;11207;59.512;18.050;2022-11-20T08:49:12;1.10;99.90
22081;DHT22;11207;59.512;18.050;2022-11-20T08:51:38;1.10;99.90
22081;DHT22;11207;59.512;18.050;2022-11-20T08:54:04;1.10;99.90
22081;DHT22;11207;59.512;18.050;2022-11-20T08:56:31;1.10;99.90
22081;DHT22;11207;59.512;18.050;2022-11-20T08:58:57;1.10;99.90
22081;DHT22;11207;59.512;18.050;2022-11-20T09:01:25;1.10;99.90
22081;DHT22;11207;59.512;18.050;2022-11-20T09:03:51;1.10;99.90
22081;DHT22;11207;59.512;18.050;2022-11-20T09:06:16;1.20;99.90
22081;DHT22;11207;59.512;18.050;2022-11-20T09:08:42;1.10;99.90
22081;DHT22;11207;59.512;18.050;2022-11-20T09:11:08;1.10;99.90
22081;DHT22;11207;59.512;18.050;2022-11-20T09:13:35;1.30;99.90
22081;DHT22;11207;59.512;18.050;2022-11-20T09:16:03;1.10;99.90
22081;DHT22;11207;59.512;18.050;2022-11-20T09:18:30;1.10;99.90
22081;DHT22;11207;59.512;18.050;2022-11-20T09:21:03;1.10;99.90
22081;DHT22;11207;59.512;18.050;2022-11-20T09:23:32;1.20;99.90
22081;DHT22;11207;59.512;18.050;2022-11-20T09:26:02;1.20;99.90
22081;DHT22;11207;59.512;18.050;2022-11-20T09:28:28;1.20;99.90
22081;DHT22;11207;59.512;18.050;2022-11-20T09:30:54;1.20;99.90
22081;DHT22;11207;59.512;18.050;2022-11-20T09:33:19;1.30;99.90
22081;DHT22;11207;59.512;18.050;2022-11-20T09:35:45;1.20;99.90
22081;DHT22;11207;59.512;18.050;2022-11-20T09:38:11;1.40;99.90
22081;DHT22;11207;59.512;18.050;2022-11-20T09:40:43;1.30;99.90
22081;DHT22;11207;59.512;18.050;2022-11-20T09:46:02;1.30;99.90
22081;DHT22;11207;59.512;18.050;2022-11-20T09:49:23;1.30;99.90
22081;DHT22;11207;59.512;18.050;2022-11-20T09:52:01;1.30;99.90
22081;DHT22;11207;59.512;18.050;2022-11-20T09:54:37;1.40;99.90
22081;DHT22;11207;59.512;18.050;2022-11-20T09:57:29;1.30;99.90
22081;DHT22;11207;59.512;18.050;2022-11-20T10:00:00;1.30;99.90
22081;DHT22;11207;59.512;18.050;2022-11-20T10:02:35;1.20;99.90
22081;DHT22;11207;59.512;18.050;2022-11-20T10:10:34;1.30;99.90
22081;DHT22;11207;59.512;18.050;2022-11-20T10:13:26;1.30;99.90
22081;DHT22;11207;59.512;18.050;2022-11-20T10:30:23;1.20;99.90
22081;DHT22;11207;59.512;18.050;2022-11-20T10:33:21;1.30;99.90
22081;DHT22;11207;59.512;18.050;2022-11-20T10:36:01;1.30;99.90
22081;DHT22;11207;59.512;18.050;2022-11-20T10:38:44;1.30;99.90
22081;DHT22;11207;59.512;18.050;2022-11-20T10:41:21;1.30;99.90
22081;DHT22;11207;59.512;18.050;2022-11-20T10:46:43;1.40;99.90
22081;DHT22;11207;59.512;18.050;2022-11-20T10:49:16;1.40;99.90
22081;DHT22;11207;59.512;18.050;2022-11-20T10:54:55;1.40;99.90
22081;DHT22;11207;59.512;18.050;2022-11-20T11:00:14;1.40;99.90
22081;DHT22;11207;59.512;18.050;2022-11-20T11:07:42;1.60;99.90
22081;DHT22;11207;59.512;18.050;2022-11-20T11:13:01;1.50;99.90
22081;DHT22;11207;59.512;18.050;2022-11-20T11:15:37;1.50;99.90
22081;DHT22;11207;59.512;18.050;2022-11-20T11:18:04;1.50;99.90
22081;DHT22;11207;59.512;18.050;2022-11-20T11:20:30;1.50;99.90
22081;DHT22;11207;59.512;18.050;2022-11-20T11:22:57;1.50;99.90
22081;DHT22;11207;59.512;18.050;2022-11-20T11:25:30;1.50;99.90
22081;DHT22;11207;59.512;18.050;2022-11-20T11:28:20;1.60;99.90
22081;DHT22;11207;59.512;18.050;2022-11-20T11:30:46;1.70;99.90
22081;DHT22;11207;59.512;18.050;2022-11-20T11:33:24;1.50;99.90
22081;DHT22;11207;59.512;18.050;2022-11-20T11:36:01;1.60;99.90
22081;DHT22;11207;59.512;18.050;2022-11-20T11:38:35;1.50;99.90
22081;DHT22;11207;59.512;18.050;2022-11-20T11:41:03;1.50;99.90
22081;DHT22;11207;59.512;18.050;2022-11-20T11:43:32;1.50;99.90
22081;DHT22;11207;59.512;18.050;2022-11-20T11:49:00;1.50;99.90
22081;DHT22;11207;59.512;18.050;2022-11-20T11:51:41;1.70;99.90
22081;DHT22;11207;59.512;18.050;2022-11-20T11:54:21;1.50;99.90
22081;DHT22;11207;59.512;18.050;2022-11-20T11:56:49;1.50;99.90
22081;DHT22;11207;59.512;18.050;2022-11-20T11:59:32;1.50;99.90
22081;DHT22;11207;59.512;18.050;2022-11-20T12:02:15;1.50;99.90
22081;DHT22;11207;59.512;18.050;2022-11-20T12:04:51;1.50;99.90
22081;DHT22;11207;59.512;18.050;2022-11-20T12:07:38;1.60;99.90
22081;DHT22;11207;59.512;18.050;2022-11-20T12:10:04;1.60;99.90
22081;DHT22;11207;59.512;18.050;2022-11-20T12:12:37;1.60;99.90
22081;DHT22;11207;59.512;18.050;2022-11-20T12:15:11;1.50;99.90
22081;DHT22;11207;59.512;18.050;2022-11-20T12:17:37;1.50;99.90
22081;DHT22;11207;59.512;18.050;2022-11-20T12:20:05;1.50;99.90
22081;DHT22;11207;59.512;18.050;2022-11-20T12:27:47;1.50;99.90
22081;DHT22;11207;59.512;18.050;2022-11-20T12:30:20;1.50;99.90
22081;DHT22;11207;59.512;18.050;2022-11-20T12:36:00;1.40;99.90
22081;DHT22;11207;59.512;18.050;2022-11-20T12:41:44;1.40;99.90
22081;DHT22;11207;59.512;18.050;2022-11-20T12:50:43;1.30;99.90
22081;DHT22;11207;59.512;18.050;2022-11-20T12:53:49;1.30;99.90
22081;DHT22;11207;59.512;18.050;2022-11-20T12:59:18;1.30;99.90
22081;DHT22;11207;59.512;18.050;2022-11-20T13:01:54;1.30;99.90
22081;DHT22;11207;59.512;18.050;2022-11-20T13:07:05;1.30;99.90
22081;DHT22;11207;59.512;18.050;2022-11-20T13:09:32;1.20;99.90
22081;DHT22;11207;59.512;18.050;2022-11-20T13:12:08;1.20;99.90
22081;DHT22;11207;59.512;18.050;2022-11-20T13:17:29;1.20;99.90
22081;DHT22;11207;59.512;18.050;2022-11-20T13:19:57;1.20;99.90
22081;DHT22;11207;59.512;18.050;2022-11-20T13:22:29;1.20;99.90
22081;DHT22;11207;59.512;18.050;2022-11-20T13:24:55;1.20;99.90
22081;DHT22;11207;59.512;18.050;2022-11-20T13:27:22;1.20;99.90
22081;DHT22;11207;59.512;18.050;2022-11-20T13:30:14;1.30;99.90
22081;DHT22;11207;59.512;18.050;2022-11-20T13:38:07;1.20;99.90
22081;DHT22;11207;59.512;18.050;2022-11-20T13:40:35;1.30;99.90
22081;DHT22;11207;59.512;18.050;2022-11-20T13:43:19;1.20;99.90
22081;DHT22;11207;59.512;18.050;2022-11-20T13:45:56;1.20;99.90
22081;DHT22;11207;59.512;18.050;2022-11-20T13:48:24;1.10;99.90
22081;DHT22;11207;59.512;18.050;2022-11-20T13:59:02;1.00;99.90
22081;DHT22;11207;59.512;18.050;2022-11-20T14:01:32;1.10;99.90
22081;DHT22;11207;59.512;18.050;2022-11-20T14:03:58;1.10;99.90
22081;DHT22;11207;59.512;18.050;2022-11-20T14:06:30;1.10;99.90
22081;DHT22;11207;59.512;18.050;2022-11-20T14:08:57;1.10;99.90
22081;DHT22;11207;59.512;18.050;2022-11-20T14:11:28;1.10;99.90
22081;DHT22;11207;59.512;18.050;2022-11-20T14:14:01;1.10;99.90
22081;DHT22;11207;59.512;18.050;2022-11-20T14:16:39;1.10;99.90
22081;DHT22;11207;59.512;18.050;2022-11-20T14:22:06;1.10;99.90
22081;DHT22;11207;59.512;18.050;2022-11-20T14:24:32;1.10;99.90
22081;DHT22;11207;59.512;18.050;2022-11-20T14:26:57;1.10;99.90
22081;DHT22;11207;59.512;18.050;2022-11-20T14:29:28;1.10;99.90
22081;DHT22;11207;59.512;18.050;2022-11-20T14:31:55;1.10;99.90
22081;DHT22;11207;59.512;18.050;2022-11-20T14:34:24;1.00;99.90
22081;DHT22;11207;59.512;18.050;2022-11-20T14:36:55;1.10;99.90
22081;DHT22;11207;59.512;18.050;2022-11-20T14:39:29;1.00;99.90
22081;DHT22;11207;59.512;18.050;2022-11-20T14:41:56;1.10;99.90
22081;DHT22;11207;59.512;18.050;2022-11-20T14:44:32;1.00;99.90
22081;DHT22;11207;59.512;18.050;2022-11-20T14:47:00;1.10;99.90
22081;DHT22;11207;59.512;18.050;2022-11-20T14:49:29;1.20;99.90
22081;DHT22;11207;59.512;18.050;2022-11-20T14:52:12;1.10;99.90
22081;DHT22;11207;59.512;18.050;2022-11-20T14:54:46;1.10;99.90
22081;DHT22;11207;59.512;18.050;2022-11-20T14:57:31;1.00;99.90
22081;DHT22;11207;59.512;18.050;2022-11-20T15:02:33;0.90;99.90
22081;DHT22;11207;59.512;18.050;2022-11-20T15:05:01;0.90;99.90
22081;DHT22;11207;59.512;18.050;2022-11-20T15:07:36;0.90;99.90
22081;DHT22;11207;59.512;18.050;2022-11-20T15:10:11;0.90;99.90
22081;DHT22;11207;59.512;18.050;2022-11-20T15:12:40;0.90;99.90
22081;DHT22;11207;59.512;18.050;2022-11-20T15:15:10;0.90;99.90
22081;DHT22;11207;59.512;18.050;2022-11-20T15:17:38;0.80;99.90
22081;DHT22;11207;59.512;18.050;2022-11-20T15:20:13;0.80;99.90
22081;DHT22;11207;59.512;18.050;2022-11-20T15:22:41;0.80;99.90
22081;DHT22;11207;59.512;18.050;2022-11-20T15:25:14;0.80;99.90
22081;DHT22;11207;59.512;18.050;2022-11-20T15:27:41;0.90;99.90
22081;DHT22;11207;59.512;18.050;2022-11-20T15:30:18;0.80;99.90
22081;DHT22;11207;59.512;18.050;2022-11-20T15:32:45;0.80;99.90
22081;DHT22;11207;59.512;18.050;2022-11-20T15:35:12;0.70;99.90
22081;DHT22;11207;59.512;18.050;2022-11-20T15:37:38;0.70;99.90
22081;DHT22;11207;59.512;18.050;2022-11-20T15:40:05;0.80;99.90
22081;DHT22;11207;59.512;18.050;2022-11-20T15:42:31;0.70;99.90
22081;DHT22;11207;59.512;18.050;2022-11-20T15:44:57;0.70;99.90
22081;DHT22;11207;59.512;18.050;2022-11-20T15:47:27;0.70;99.90
22081;DHT22;11207;59.512;18.050;2022-11-20T15:49:53;0.60;99.90
22081;DHT22;11207;59.512;18.050;2022-11-20T15:52:19;0.70;99.90
22081;DHT22;11207;59.512;18.050;2022-11-20T15:54:44;0.60;99.90
22081;DHT22;11207;59.512;18.050;2022-11-20T15:57:10;0.60;99.90
22081;DHT22;11207;59.512;18.050;2022-11-20T15:59:35;0.60;99.90
22081;DHT22;11207;59.512;18.050;2022-11-20T16:02:11;0.60;99.90
22081;DHT22;11207;59.512;18.050;2022-11-20T16:04:38;0.50;99.90
22081;DHT22;11207;59.512;18.050;2022-11-20T16:07:03;0.50;99.90
22081;DHT22;11207;59.512;18.050;2022-11-20T16:09:29;0.50;99.90
22081;DHT22;11207;59.512;18.050;2022-11-20T16:11:55;0.50;99.90
22081;DHT22;11207;59.512;18.050;2022-11-20T16:14:20;0.40;99.90
22081;DHT22;11207;59.512;18.050;2022-11-20T16:17:04;0.40;99.90
22081;DHT22;11207;59.512;18.050;2022-11-20T16:19:30;0.50;99.90
22081;DHT22;11207;59.512;18.050;2022-11-20T16:21:57;0.40;99.90
22081;DHT22;11207;59.512;18.050;2022-11-20T16:24:24;0.50;99.90
22081;DHT22;11207;59.512;18.050;2022-11-20T16:26:50;0.50;99.90
22081;DHT22;11207;59.512;18.050;2022-11-20T16:29:15;0.50;99.90
22081;DHT22;11207;59.512;18.050;2022-11-20T16:31:41;0.50;99.90
22081;DHT22;11207;59.512;18.050;2022-11-20T16:34:07;0.50;99.90
22081;DHT22;11207;59.512;18.050;2022-11-20T16:36:33;0.40;99.90
22081;DHT22;11207;59.512;18.050;2022-11-20T16:39:01;0.40;99.90
22081;DHT22;11207;59.512;18.050;2022-11-20T16:41:31;0.50;99.90
22081;DHT22;11207;59.512;18.050;2022-11-20T16:43:58;0.50;99.90
22081;DHT22;11207;59.512;18.050;2022-11-20T16:46:31;0.50;99.90
22081;DHT22;11207;59.512;18.050;2022-11-20T16:48:58;0.40;99.90
22081;DHT22;11207;59.512;18.050;2022-11-20T16:51:26;0.40;99.90
22081;DHT22;11207;59.512;18.050;2022-11-20T16:53:52;0.40;99.90
22081;DHT22;11207;59.512;18.050;2022-11-20T16:56:21;0.50;99.90
22081;DHT22;11207;59.512;18.050;2022-11-20T16:58:48;0.40;99.90
22081;DHT22;11207;59.512;18.050;2022-11-20T17:01:19;0.40;99.90
22081;DHT22;11207;59.512;18.050;2022-11-20T17:03:57;0.40;99.90
22081;DHT22;11207;59.512;18.050;2022-11-20T17:06:28;0.40;99.90
22081;DHT22;11207;59.512;18.050;2022-11-20T17:08:56;0.50;99.90
22081;DHT22;11207;59.512;18.050;2022-11-20T17:11:22;0.50;99.90